Time;durP1;ratioP1;P1;durP2;ratioP2;P2;SDS_P1;SDS_P2;PMS_P1;PMS_P2;Temp;Humidity;BMP_temperature;BMP_pressure;BME280_temperature;BME280_humidity;BME280_pressure;Samples;Min_cycle;Max_cycle;Signal;HPM_P1;HPM_P2
2022/08/04 00:01:34;;;;;;;;;;;;;;;18.69;66.06;100539.45;1462890;89;20359;-83
2022/08/04 00:04:04;;;;;;;;;;;;;;;18.70;66.17;100536.25;1463945;88;20277;-83
2022/08/04 00:07:06;;;;;;;;;;;;;;;18.70;66.16;100536.25;1460753;88;20872;-83
2022/08/04 00:09:38;;;;;;;;;;;;;;;18.68;66.62;100534.30;1466166;88;20366;-83
2022/08/04 00:12:06;;;;;;;;;;;;;;;18.64;67.53;100532.53;1465552;88;20432;-83
2022/08/04 00:14:36;;;;;;;;;;;;;;;18.61;67.46;100535.58;1458958;89;21635;-83
2022/08/04 00:17:05;;;;;;;;;;;;;;;18.58;67.71;100535.98;1462499;88;20834;-83
2022/08/04 00:19:34;;;;;;;;;;;;;;;18.55;67.89;100539.58;1459066;89;20307;-83
2022/08/04 00:22:04;;;;;;;;;;;;;;;18.49;67.52;100539.33;1459114;89;20344;-83
2022/08/04 00:24:30;;;;;;;;;;;;;;;18.44;67.38;100536.92;1465201;88;21094;-83
2022/08/04 00:26:57;;;;;;;;;;;;;;;18.41;67.85;100546.20;1459920;88;20240;-83
2022/08/04 00:29:24;;;;;;;;;;;;;;;18.38;68.56;100543.89;1452512;89;20328;-83
2022/08/04 00:31:50;;;;;;;;;;;;;;;18.32;68.29;100546.02;1465922;88;20232;-83
2022/08/04 00:34:16;;;;;;;;;;;;;;;18.29;68.24;100545.07;1463380;89;20329;-83
2022/08/04 00:36:43;;;;;;;;;;;;;;;18.25;67.80;100546.50;1455395;88;20365;-83
2022/08/04 00:39:13;;;;;;;;;;;;;;;18.22;67.87;100545.55;1460145;89;20313;-83
2022/08/04 00:41:43;;;;;;;;;;;;;;;18.18;67.62;100543.78;1468850;88;20399;-83
2022/08/04 00:44:15;;;;;;;;;;;;;;;18.16;67.73;100544.99;1455268;89;20418;-83
2022/08/04 00:47:11;;;;;;;;;;;;;;;18.14;69.83;100549.70;1453254;88;20262;-83
2022/08/04 00:50:07;;;;;;;;;;;;;;;18.10;68.14;100545.25;1455591;88;20358;-83
2022/08/04 00:52:36;;;;;;;;;;;;;;;18.07;70.25;100547.47;1454532;88;20559;-83
2022/08/04 00:55:21;;;;;;;;;;;;;;;18.01;69.87;100547.73;1458311;88;20739;-83
2022/08/04 00:57:51;;;;;;;;;;;;;;;17.95;69.05;100544.00;1464326;89;20225;-82
2022/08/04 01:00:18;;;;;;;;;;;;;;;17.90;69.26;100559.81;1461384;89;20344;-83
2022/08/04 01:03:10;;;;;;;;;;;;;;;17.84;71.83;100549.88;1467822;89;20276;-82
2022/08/04 01:05:58;;;;;;;;;;;;;;;17.79;72.22;100553.63;1467366;88;20293;-82
2022/08/04 01:08:34;;;;;;;;;;;;;;;17.74;72.70;100558.69;1445385;89;20370;-82
2022/08/04 01:11:06;;;;;;;;;;;;;;;17.73;72.59;100561.88;1458064;89;21279;-83
2022/08/04 01:13:44;;;;;;;;;;;;;;;17.71;73.91;100554.55;1453738;89;20418;-82
2022/08/04 01:16:12;;;;;;;;;;;;;;;17.70;73.74;100557.43;1457792;89;20283;-83
2022/08/04 01:18:54;;;;;;;;;;;;;;;17.71;74.02;100555.06;1453835;89;20240;-83
2022/08/04 01:21:30;;;;;;;;;;;;;;;17.71;73.91;100558.56;1463384;89;20343;-82
2022/08/04 01:24:34;;;;;;;;;;;;;;;17.73;72.89;100558.38;1462815;88;20283;-82
2022/08/04 01:27:19;;;;;;;;;;;;;;;17.73;73.51;100551.69;1463803;89;20269;-83
2022/08/04 01:29:55;;;;;;;;;;;;;;;17.70;72.56;100549.41;1460577;88;20358;-83
2022/08/04 01:32:24;;;;;;;;;;;;;;;17.63;73.50;100541.80;1459842;88;21012;-83
2022/08/04 01:34:53;;;;;;;;;;;;;;;17.59;72.84;100546.71;1454270;88;20306;-83
2022/08/04 01:37:42;;;;;;;;;;;;;;;17.54;72.70;100548.61;1458984;89;20336;-82
2022/08/04 01:40:10;;;;;;;;;;;;;;;17.47;74.21;100549.06;1459099;88;20233;-83
2022/08/04 01:42:38;;;;;;;;;;;;;;;17.40;74.69;100548.15;1457543;89;20908;-83
2022/08/04 01:45:07;;;;;;;;;;;;;;;17.34;74.95;100551.58;1451075;89;20276;-82
2022/08/04 01:47:35;;;;;;;;;;;;;;;17.29;73.84;100552.17;1461567;89;20255;-82
2022/08/04 01:50:05;;;;;;;;;;;;;;;17.23;73.78;100556.08;1465397;89;20948;-83
2022/08/04 01:52:33;;;;;;;;;;;;;;;17.17;74.02;100550.16;1464315;89;20306;-82
2022/08/04 01:55:00;;;;;;;;;;;;;;;17.10;73.66;100552.23;1466019;89;20306;-83
2022/08/04 01:57:27;;;;;;;;;;;;;;;17.04;75.40;100555.67;1460732;88;20826;-82
2022/08/04 01:59:53;;;;;;;;;;;;;;;16.99;75.68;100549.22;1463608;89;20448;-83
2022/08/04 02:02:22;;;;;;;;;;;;;;;16.90;76.45;100552.50;1454251;89;20346;-83
2022/08/04 02:04:48;;;;;;;;;;;;;;;16.84;76.85;100545.23;1462959;88;20226;-82
2022/08/04 02:07:18;;;;;;;;;;;;;;;16.78;76.83;100548.65;1457879;89;20292;-83
2022/08/04 02:09:53;;;;;;;;;;;;;;;16.72;77.33;100549.36;1458285;88;20337;-83
2022/08/04 02:12:49;;;;;;;;;;;;;;;16.67;78.54;100552.06;1455126;89;20336;-83
2022/08/04 02:15:21;;;;;;;;;;;;;;;16.62;77.66;100542.42;1461602;89;20384;-82
2022/08/04 02:18:06;;;;;;;;;;;;;;;16.56;78.19;100542.34;1464981;88;20842;-82
2022/08/04 02:20:36;;;;;;;;;;;;;;;16.51;78.76;100542.05;1458447;89;20357;-82
2022/08/04 02:23:09;;;;;;;;;;;;;;;16.46;79.56;100542.63;1460146;89;20314;-82
2022/08/04 02:25:42;;;;;;;;;;;;;;;16.40;79.98;100546.00;1457858;89;20291;-82
2022/08/04 02:28:23;;;;;;;;;;;;;;;16.34;79.34;100543.58;1462042;89;20991;-83
2022/08/04 02:30:53;;;;;;;;;;;;;;;16.29;80.51;100546.47;1456029;89;20305;-83
2022/08/04 02:33:22;;;;;;;;;;;;;;;16.27;79.04;100533.80;1453911;89;20255;-83
2022/08/04 02:35:51;;;;;;;;;;;;;;;16.28;79.15;100538.12;1453336;89;20406;-83
2022/08/04 02:38:36;;;;;;;;;;;;;;;16.31;80.08;100539.09;1461239;88;20417;-83
2022/08/04 02:41:03;;;;;;;;;;;;;;;16.35;81.30;100535.06;1457105;88;20255;-83
2022/08/04 02:43:30;;;;;;;;;;;;;;;16.34;80.12;100536.91;1465341;88;20262;-83
2022/08/04 02:45:56;;;;;;;;;;;;;;;16.40;79.74;100529.97;1445406;89;20358;-83
2022/08/04 02:48:24;;;;;;;;;;;;;;;16.43;80.50;100529.64;1459519;88;20278;-83
2022/08/04 02:50:52;;;;;;;;;;;;;;;16.46;79.62;100531.94;1466709;88;20307;-83
2022/08/04 02:53:19;;;;;;;;;;;;;;;16.47;80.35;100530.41;1469197;89;20285;-82
2022/08/04 02:55:46;;;;;;;;;;;;;;;16.52;80.61;100531.71;1464299;88;20396;-83
2022/08/04 02:58:14;;;;;;;;;;;;;;;16.53;79.86;100534.19;1442152;89;20357;-83
2022/08/04 03:00:40;;;;;;;;;;;;;;;16.54;80.10;100536.34;1464262;88;20284;-83
2022/08/04 03:03:15;;;;;;;;;;;;;;;16.54;79.59;100533.67;1462124;89;20369;-83
2022/08/04 03:05:51;;;;;;;;;;;;;;;16.52;80.67;100536.55;1467401;88;20370;-83
2022/08/04 03:08:23;;;;;;;;;;;;;;;16.47;80.77;100538.93;1459967;88;20299;-83
2022/08/04 03:11:11;;;;;;;;;;;;;;;16.42;80.06;100535.97;1463254;89;20858;-83
2022/08/04 03:13:56;;;;;;;;;;;;;;;16.42;80.48;100535.45;1461011;89;20388;-83
2022/08/04 03:16:57;;;;;;;;;;;;;;;16.42;80.46;100530.11;1463026;88;20798;-83
2022/08/04 03:19:42;;;;;;;;;;;;;;;16.39;79.70;100533.67;1459816;88;20417;-83
2022/08/04 03:22:44;;;;;;;;;;;;;;;16.32;81.00;100531.42;1450999;88;20375;-83
2022/08/04 03:25:33;;;;;;;;;;;;;;;16.27;80.91;100536.47;1459405;89;20254;-83
2022/08/04 03:28:09;;;;;;;;;;;;;;;16.20;80.96;100533.20;1465729;88;20797;-83
2022/08/04 03:30:54;;;;;;;;;;;;;;;16.20;81.54;100531.03;1458455;88;20306;-83
2022/08/04 03:33:39;;;;;;;;;;;;;;;16.24;81.48;100534.48;1464000;88;20262;-83
2022/08/04 03:36:27;;;;;;;;;;;;;;;16.24;81.25;100531.81;1454278;90;20276;-83
2022/08/04 03:39:12;;;;;;;;;;;;;;;16.28;81.06;100534.11;1444831;89;20276;-83
2022/08/04 03:41:54;;;;;;;;;;;;;;;16.33;80.33;100538.41;1445707;90;20373;-83
2022/08/04 03:44:32;;;;;;;;;;;;;;;16.41;81.33;100536.99;1458013;90;20588;-82
2022/08/04 03:47:20;;;;;;;;;;;;;;;16.47;81.33;100536.25;1367813;94;20411;-82
2022/08/04 03:50:08;;;;;;;;;;;;;;;16.48;80.99;100536.57;1446763;89;20836;-82
2022/08/04 03:53:10;;;;;;;;;;;;;;;16.55;80.25;100534.84;1409280;89;20284;-83
2022/08/04 03:55:39;;;;;;;;;;;;;;;16.64;80.07;100542.25;1453553;89;20377;-83
2022/08/04 03:58:18;;;;;;;;;;;;;;;16.72;79.50;100543.50;1446452;89;20827;-83
2022/08/04 04:01:12;;;;;;;;;;;;;;;16.82;79.17;100541.91;1452393;90;20254;-83
2022/08/04 04:03:47;;;;;;;;;;;;;;;16.90;79.40;100536.47;1442423;90;20292;-83
2022/08/04 04:06:35;;;;;;;;;;;;;;;16.99;78.94;100544.70;1409189;90;20885;-84
2022/08/04 04:09:14;;;;;;;;;;;;;;;17.04;78.38;100546.31;1452349;88;20417;-83
2022/08/04 04:11:50;;;;;;;;;;;;;;;17.06;78.88;100546.95;1454014;88;21129;-83
2022/08/04 04:14:32;;;;;;;;;;;;;;;17.10;78.38;100541.55;1453347;90;20217;-83
2022/08/04 04:17:07;;;;;;;;;;;;;;;17.14;78.37;100548.16;1454866;90;20413;-84
2022/08/04 04:19:52;;;;;;;;;;;;;;;17.19;78.50;100548.13;1454237;90;20345;-83
2022/08/04 04:22:56;;;;;;;;;;;;;;;17.23;78.24;100550.22;1446942;89;20347;-83
2022/08/04 04:25:52;;;;;;;;;;;;;;;17.30;78.28;100549.80;1466822;88;20321;-84
2022/08/04 04:28:32;;;;;;;;;;;;;;;17.37;78.05;100549.87;1448361;89;20358;-83
2022/08/04 04:31:23;;;;;;;;;;;;;;;17.45;77.75;100545.74;1463759;89;20416;-83
2022/08/04 04:34:17;;;;;;;;;;;;;;;17.52;77.65;100547.99;1452396;89;20306;-83
2022/08/04 04:36:50;;;;;;;;;;;;;;;17.61;77.64;100544.69;1450167;89;20930;-83
2022/08/04 04:39:28;;;;;;;;;;;;;;;17.71;76.85;100548.38;1450157;89;20350;-83
2022/08/04 04:42:21;;;;;;;;;;;;;;;17.78;76.79;100554.15;1453842;89;20562;-83
2022/08/04 04:44:57;;;;;;;;;;;;;;;17.92;75.90;100557.75;1461690;89;20290;-83
2022/08/04 04:47:32;;;;;;;;;;;;;;;18.05;75.39;100549.02;1462014;89;20380;-83
2022/08/04 04:50:05;;;;;;;;;;;;;;;18.16;74.68;100551.69;1454837;89;20239;-83
2022/08/04 04:52:46;;;;;;;;;;;;;;;18.31;74.50;100548.39;1462859;88;20284;-83
2022/08/04 04:55:22;;;;;;;;;;;;;;;18.41;74.04;100548.89;1445305;89;20962;-83
2022/08/04 04:57:51;;;;;;;;;;;;;;;18.56;73.73;100551.94;1449713;89;20328;-83
2022/08/04 05:00:17;;;;;;;;;;;;;;;18.64;72.67;100551.78;1450167;90;20313;-83
2022/08/04 05:02:56;;;;;;;;;;;;;;;18.72;72.00;100553.80;1460962;88;20160;-87
2022/08/04 05:06:01;;;;;;;;;;;;;;;18.80;71.99;100558.20;1448893;90;20365;-87
2022/08/04 05:09:03;;;;;;;;;;;;;;;18.90;71.61;100558.69;1451957;90;20291;-87
2022/08/04 05:11:33;;;;;;;;;;;;;;;18.97;70.76;100564.08;1445798;90;20548;-88
2022/08/04 05:14:02;;;;;;;;;;;;;;;19.07;70.84;100559.67;1451642;89;20354;-87
2022/08/04 05:16:40;;;;;;;;;;;;;;;19.15;70.62;100555.47;1458341;90;20425;-87
2022/08/04 05:19:28;;;;;;;;;;;;;;;19.25;70.37;100568.02;1455559;89;20255;-87
2022/08/04 05:22:13;;;;;;;;;;;;;;;19.34;69.30;100568.66;1453264;88;20768;-87
2022/08/04 05:24:42;;;;;;;;;;;;;;;19.46;69.66;100568.90;1449565;90;20239;-86
2022/08/04 05:27:17;;;;;;;;;;;;;;;19.56;68.69;100574.20;1454559;88;20307;-87
2022/08/04 05:29:55;;;;;;;;;;;;;;;19.65;68.19;100565.47;1457161;90;20868;-87
2022/08/04 05:32:24;;;;;;;;;;;;;;;19.74;67.52;100569.61;1443273;89;20402;-87
2022/08/04 05:34:57;;;;;;;;;;;;;;;19.93;67.55;100575.20;1438100;89;20356;-86
2022/08/04 05:37:25;;;;;;;;;;;;;;;20.08;66.20;100570.97;1463189;88;20283;-87
2022/08/04 05:39:57;;;;;;;;;;;;;;;20.24;65.27;100576.75;1461933;88;21575;-87
2022/08/04 05:42:24;;;;;;;;;;;;;;;20.39;65.46;100571.68;1461994;88;20393;-87
2022/08/04 05:44:50;;;;;;;;;;;;;;;20.51;63.25;100577.58;1448578;89;20890;-87
2022/08/04 05:47:16;;;;;;;;;;;;;;;20.65;63.93;100578.38;1465374;89;20384;-87
2022/08/04 05:49:43;;;;;;;;;;;;;;;20.73;62.74;100577.34;1447416;89;20283;-86
2022/08/04 05:52:10;;;;;;;;;;;;;;;20.84;62.13;100581.25;1464572;88;20336;-87
2022/08/04 05:54:36;;;;;;;;;;;;;;;20.94;61.87;100582.97;1467105;88;20406;-87
2022/08/04 05:57:06;;;;;;;;;;;;;;;21.07;63.07;100584.28;1459863;89;20374;-87
2022/08/04 05:59:35;;;;;;;;;;;;;;;21.16;61.81;100587.03;1461240;88;20269;-87
2022/08/04 06:02:02;;;;;;;;;;;;;;;21.25;60.78;100586.80;1466504;89;20455;-87
2022/08/04 06:04:33;;;;;;;;;;;;;;;21.36;61.11;100579.39;1460949;89;20305;-87
2022/08/04 06:06:59;;;;;;;;;;;;;;;21.45;60.61;100579.47;1458410;89;20337;-87
2022/08/04 06:09:25;;;;;;;;;;;;;;;21.61;59.72;100578.98;1465458;89;20336;-87
2022/08/04 06:11:52;;;;;;;;;;;;;;;21.75;60.44;100585.61;1447138;89;20306;-87
2022/08/04 06:14:20;;;;;;;;;;;;;;;21.82;57.21;100586.41;1464809;89;20335;-87
2022/08/04 06:16:46;;;;;;;;;;;;;;;21.95;57.98;100582.28;1466328;89;20321;-87
2022/08/04 06:19:14;;;;;;;;;;;;;;;22.04;57.04;100585.00;1463414;89;20306;-87
2022/08/04 06:21:47;;;;;;;;;;;;;;;22.14;56.88;100588.54;1460572;88;20328;-87
2022/08/04 06:24:17;;;;;;;;;;;;;;;22.28;56.70;100584.72;1460335;89;20298;-87
2022/08/04 06:26:43;;;;;;;;;;;;;;;22.44;57.29;100584.70;1456160;88;20298;-86
2022/08/04 06:29:25;;;;;;;;;;;;;;;22.58;55.70;100583.20;1460221;89;20270;-87
2022/08/04 06:31:42;;;;;;;;;;;;;;;22.71;55.66;100583.08;1454915;89;20382;-87
2022/08/04 06:34:11;;;;;;;;;;;;;;;22.81;55.75;100582.55;1463704;89;20307;-87
2022/08/04 06:36:39;;;;;;;;;;;;;;;22.95;55.03;100580.84;1462113;89;20900;-87
2022/08/04 06:39:07;;;;;;;;;;;;;;;23.09;54.97;100582.05;1457529;89;20225;-87
2022/08/04 06:41:33;;;;;;;;;;;;;;;23.16;52.47;100589.03;1461707;88;20247;-87
2022/08/04 06:44:03;;;;;;;;;;;;;;;23.30;52.62;100588.30;1446900;89;20403;-87
2022/08/04 06:46:30;;;;;;;;;;;;;;;23.40;53.10;100583.73;1458758;88;21286;-87
2022/08/04 06:48:57;;;;;;;;;;;;;;;23.55;54.46;100587.37;1457543;89;20284;-87
2022/08/04 06:51:24;;;;;;;;;;;;;;;23.67;52.59;100588.23;1454501;89;20336;-87
2022/08/04 06:53:50;;;;;;;;;;;;;;;23.74;51.87;100587.65;1454738;89;20879;-86
2022/08/04 06:56:18;;;;;;;;;;;;;;;23.73;49.23;100587.33;1462985;89;20290;-87
2022/08/04 06:58:45;;;;;;;;;;;;;;;23.89;49.52;100585.04;1460671;88;20298;-87
2022/08/04 07:01:18;;;;;;;;;;;;;;;24.00;48.96;100578.84;1449293;89;20426;-86
2022/08/04 07:03:44;;;;;;;;;;;;;;;24.04;48.38;100582.18;1459932;88;20298;-87
2022/08/04 07:06:10;;;;;;;;;;;;;;;24.21;50.17;100582.85;1469065;88;20828;-88
2022/08/04 07:08:36;;;;;;;;;;;;;;;24.28;47.94;100576.28;1463560;89;20246;-87
2022/08/04 07:11:04;;;;;;;;;;;;;;;24.31;47.72;100577.17;1464351;89;20998;-87
2022/08/04 07:13:31;;;;;;;;;;;;;;;24.40;48.18;100583.05;1459977;89;20905;-87
2022/08/04 07:15:58;;;;;;;;;;;;;;;24.59;49.85;100581.59;1461967;88;20291;-87
2022/08/04 07:18:24;;;;;;;;;;;;;;;24.76;49.88;100581.98;1466818;89;20418;-88
2022/08/04 07:20:51;;;;;;;;;;;;;;;24.88;48.59;100583.31;1460179;89;20291;-88
2022/08/04 07:23:20;;;;;;;;;;;;;;;25.03;47.87;100581.48;1456887;89;20298;-87
2022/08/04 07:25:51;;;;;;;;;;;;;;;24.94;46.17;100575.58;1448874;89;20299;-87
2022/08/04 07:28:18;;;;;;;;;;;;;;;25.03;45.60;100580.63;1456301;89;20233;-87
2022/08/04 07:30:46;;;;;;;;;;;;;;;25.05;45.32;100575.80;1464741;88;20825;-87
2022/08/04 07:33:12;;;;;;;;;;;;;;;25.09;44.30;100576.45;1450168;89;20313;-87
2022/08/04 07:35:38;;;;;;;;;;;;;;;25.26;46.05;100570.28;1459619;89;20343;-87
2022/08/04 07:38:04;;;;;;;;;;;;;;;25.43;46.63;100577.42;1458264;88;20284;-88
2022/08/04 07:40:31;;;;;;;;;;;;;;;25.62;45.73;100580.73;1464340;89;20411;-87
2022/08/04 07:42:58;;;;;;;;;;;;;;;25.68;43.95;100578.12;1457695;88;20269;-87
2022/08/04 07:45:24;;;;;;;;;;;;;;;25.78;44.22;100578.28;1462644;89;20285;-88
2022/08/04 07:47:50;;;;;;;;;;;;;;;25.76;43.12;100575.02;1459595;88;20870;-88
2022/08/04 07:50:16;;;;;;;;;;;;;;;25.84;43.51;100582.24;1462630;89;20381;-88
2022/08/04 07:52:43;;;;;;;;;;;;;;;25.77;43.01;100584.78;1463428;88;20381;-88
2022/08/04 07:55:10;;;;;;;;;;;;;;;25.90;44.18;100587.22;1461825;88;20312;-88
2022/08/04 07:57:36;;;;;;;;;;;;;;;26.03;44.50;100584.17;1464864;88;20710;-87
2022/08/04 08:00:04;;;;;;;;;;;;;;;26.09;42.75;100585.89;1464589;88;20351;-87
2022/08/04 08:02:31;;;;;;;;;;;;;;;26.05;42.27;100579.87;1456488;88;20314;-88
2022/08/04 08:04:57;;;;;;;;;;;;;;;26.02;41.93;100579.83;1456684;89;20834;-88
2022/08/04 08:07:23;;;;;;;;;;;;;;;26.14;42.26;100572.95;1468574;89;20283;-87
2022/08/04 08:09:49;;;;;;;;;;;;;;;26.19;41.75;100577.66;1462318;89;20226;-87
2022/08/04 08:12:15;;;;;;;;;;;;;;;26.37;42.26;100577.92;1462944;88;20306;-87
2022/08/04 08:14:42;;;;;;;;;;;;;;;26.60;42.80;100583.17;1458027;89;20321;-87
2022/08/04 08:17:09;;;;;;;;;;;;;;;26.67;40.03;100576.20;1458536;89;20425;-87
2022/08/04 08:19:35;;;;;;;;;;;;;;;26.82;41.94;100574.25;1459687;89;20335;-88
2022/08/04 08:22:02;;;;;;;;;;;;;;;27.00;42.16;100577.45;1460938;88;20292;-88
2022/08/04 08:24:30;;;;;;;;;;;;;;;27.03;40.12;100573.95;1454511;88;21152;-87
2022/08/04 08:26:56;;;;;;;;;;;;;;;27.20;40.23;100572.02;1453336;88;20240;-88
2022/08/04 08:29:23;;;;;;;;;;;;;;;27.30;39.63;100576.73;1462299;88;20284;-88
2022/08/04 08:31:49;;;;;;;;;;;;;;;27.42;39.41;100579.61;1456393;88;20291;-87
2022/08/04 08:34:15;;;;;;;;;;;;;;;27.48;38.74;100579.63;1445570;89;20994;-87
2022/08/04 08:36:44;;;;;;;;;;;;;;;27.44;37.72;100573.35;1442881;89;20292;-87
2022/08/04 08:39:26;;;;;;;;;;;;;;;27.60;38.75;100580.33;1455373;88;20351;-88
2022/08/04 08:42:18;;;;;;;;;;;;;;;27.73;39.56;100586.69;1399767;92;20469;-88
2022/08/04 08:44:54;;;;;;;;;;;;;;;27.86;39.80;100587.66;1458331;88;20390;-87
2022/08/04 08:47:35;;;;;;;;;;;;;;;28.00;38.26;100581.80;1448362;89;20262;-87
2022/08/04 08:50:14;;;;;;;;;;;;;;;28.07;38.55;100578.31;1459988;88;20291;-88
2022/08/04 08:53:03;;;;;;;;;;;;;;;28.19;37.70;100580.84;1461116;89;20860;-87
2022/08/04 08:55:47;;;;;;;;;;;;;;;28.24;38.90;100576.81;1457820;88;20908;-88
2022/08/04 08:58:36;;;;;;;;;;;;;;;28.20;37.20;100576.52;1457622;89;20328;-87
2022/08/04 09:01:41;;;;;;;;;;;;;;;28.18;36.06;100578.67;1457883;89;20253;-87
2022/08/04 09:04:13;;;;;;;;;;;;;;;28.40;37.01;100579.08;1457345;88;20426;-88
2022/08/04 09:07:15;;;;;;;;;;;;;;;28.59;37.96;100578.15;1459199;88;20255;-87
2022/08/04 09:09:53;;;;;;;;;;;;;;;28.53;36.27;100573.21;1461984;88;20846;-87
2022/08/04 09:12:26;;;;;;;;;;;;;;;28.49;36.39;100570.75;1457794;89;20850;-88
2022/08/04 09:15:14;;;;;;;;;;;;;;;28.70;37.74;100575.21;1461967;89;20269;-87
2022/08/04 09:17:46;;;;;;;;;;;;;;;28.90;35.57;100562.78;1459172;89;20323;-87
2022/08/04 09:20:28;;;;;;;;;;;;;;;28.72;35.25;100575.77;1464439;89;20344;-88
2022/08/04 09:23:09;;;;;;;;;;;;;;;28.68;34.93;100574.65;1458865;89;20396;-87
2022/08/04 09:25:59;;;;;;;;;;;;;;;28.70;35.54;100565.68;1458211;89;20366;-87
2022/08/04 09:28:27;;;;;;;;;;;;;;;28.91;36.46;100564.41;1456888;89;20358;-87
2022/08/04 09:31:12;;;;;;;;;;;;;;;29.06;35.31;100565.87;1461031;89;20365;-87
2022/08/04 09:33:42;;;;;;;;;;;;;;;28.93;33.77;100558.16;1460661;89;21203;-88
2022/08/04 09:36:32;;;;;;;;;;;;;;;29.15;34.60;100560.18;1458619;89;20439;-87
2022/08/04 09:39:22;;;;;;;;;;;;;;;29.32;35.11;100557.23;1466556;89;20262;-88
2022/08/04 09:42:08;;;;;;;;;;;;;;;29.54;35.29;100563.80;1460545;88;20283;-88
2022/08/04 09:44:47;;;;;;;;;;;;;;;29.59;33.54;100553.45;1468348;88;20746;-87
2022/08/04 09:47:41;;;;;;;;;;;;;;;29.74;33.91;100558.13;1461098;89;20261;-88
2022/08/04 09:50:31;;;;;;;;;;;;;;;29.78;33.67;100552.39;1417081;91;20326;-87
2022/08/04 09:53:00;;;;;;;;;;;;;;;29.75;33.58;100556.50;1441075;91;20309;-88
2022/08/04 09:55:51;;;;;;;;;;;;;;;29.74;34.80;100552.67;1459340;88;20305;-88
2022/08/04 09:58:21;;;;;;;;;;;;;;;29.80;32.80;100547.48;1471193;88;20335;-87
2022/08/04 10:00:51;;;;;;;;;;;;;;;30.07;33.30;100549.39;1468545;88;21497;-87
2022/08/04 10:03:18;;;;;;;;;;;;;;;29.97;32.44;100541.20;1478632;88;20439;-87
2022/08/04 10:05:53;;;;;;;;;;;;;;;29.83;31.76;100545.57;1456884;88;20343;-87
2022/08/04 10:08:35;;;;;;;;;;;;;;;30.02;33.38;100535.75;1474041;88;20305;-87
2022/08/04 10:11:10;;;;;;;;;;;;;;;29.79;31.08;100540.41;1475340;88;20405;-87
2022/08/04 10:13:58;;;;;;;;;;;;;;;29.63;31.37;100540.38;1476452;88;20826;-87
2022/08/04 10:16:30;;;;;;;;;;;;;;;29.84;33.53;100539.05;1474284;88;20326;-87
2022/08/04 10:19:26;;;;;;;;;;;;;;;29.93;31.21;100537.95;1475094;88;20297;-87
2022/08/04 10:22:04;;;;;;;;;;;;;;;30.02;31.19;100545.30;1474683;88;20804;-87
2022/08/04 10:24:40;;;;;;;;;;;;;;;30.10;30.59;100539.84;1439244;91;20317;-87
2022/08/04 10:27:12;;;;;;;;;;;;;;;30.22;33.55;100531.39;1434787;91;20874;-87
2022/08/04 10:29:46;;;;;;;;;;;;;;;30.31;30.72;100526.45;1438312;91;21750;-87
2022/08/04 10:32:29;;;;;;;;;;;;;;;30.54;32.96;100523.65;1441318;91;20452;-86
2022/08/04 10:35:10;;;;;;;;;;;;;;;30.38;30.42;100534.34;1432984;91;20428;-87
2022/08/04 10:37:57;;;;;;;;;;;;;;;30.55;31.09;100522.54;1430116;91;20266;-87
2022/08/04 10:40:45;;;;;;;;;;;;;;;30.31;29.54;100514.16;1426849;92;21018;-87
2022/08/04 10:43:31;;;;;;;;;;;;;;;30.57;29.00;100520.91;1450683;90;20375;-87
2022/08/04 10:46:16;;;;;;;;;;;;;;;30.89;30.62;100505.50;1448816;90;20321;-87
2022/08/04 10:48:57;;;;;;;;;;;;;;;30.92;28.38;100510.40;1446795;90;20307;-86
2022/08/04 10:51:45;;;;;;;;;;;;;;;30.85;27.53;100509.91;1442968;90;20494;-86
2022/08/04 10:54:20;;;;;;;;;;;;;;;30.97;28.78;100514.48;1451684;90;20250;-87
2022/08/04 10:56:56;;;;;;;;;;;;;;;31.23;28.77;100518.43;1445798;90;20342;-87
2022/08/04 10:59:34;;;;;;;;;;;;;;;31.43;29.27;100507.38;1443406;90;20263;-87
2022/08/04 11:02:04;;;;;;;;;;;;;;;31.37;25.57;100503.05;1475826;87;20303;-87
2022/08/04 11:04:46;;;;;;;;;;;;;;;31.35;27.37;100509.88;1479691;87;20244;-87
2022/08/04 11:07:12;;;;;;;;;;;;;;;31.37;25.90;100511.25;1483722;87;20356;-87
2022/08/04 11:09:39;;;;;;;;;;;;;;;31.41;26.79;100512.31;1490232;87;20839;-87
2022/08/04 11:12:15;;;;;;;;;;;;;;;31.47;27.42;100511.16;1490356;87;20340;-87
2022/08/04 11:14:50;;;;;;;;;;;;;;;31.63;27.44;100504.22;1486413;87;20338;-87
2022/08/04 11:17:20;;;;;;;;;;;;;;;31.40;26.01;100505.22;1479231;87;20288;-87
2022/08/04 11:20:00;;;;;;;;;;;;;;;31.67;28.54;100508.01;1455759;89;20306;-87
2022/08/04 11:22:27;;;;;;;;;;;;;;;31.71;28.39;100500.88;1470319;88;20954;-87
2022/08/04 11:25:10;;;;;;;;;;;;;;;31.90;28.95;100499.59;1464529;88;20365;-87
2022/08/04 11:27:58;;;;;;;;;;;;;;;31.98;27.01;100489.98;1460736;89;20284;-88
2022/08/04 11:30:26;;;;;;;;;;;;;;;31.84;27.36;100499.38;1433710;90;20353;-87
2022/08/04 11:32:56;;;;;;;;;;;;;;;31.88;28.10;100493.06;1435664;90;20823;-88
2022/08/04 11:35:32;;;;;;;;;;;;;;;31.96;26.86;100496.29;1440420;90;20323;-88
2022/08/04 11:38:01;;;;;;;;;;;;;;;31.98;25.88;100489.42;1459949;89;20306;-88
2022/08/04 11:40:31;;;;;;;;;;;;;;;31.91;26.53;100493.07;1462109;88;20394;-88
2022/08/04 11:43:00;;;;;;;;;;;;;;;31.89;25.53;100494.68;1452902;90;20256;-88
2022/08/04 11:45:36;;;;;;;;;;;;;;;31.90;26.72;100496.86;1457053;89;20285;-88
2022/08/04 11:48:08;;;;;;;;;;;;;;;32.09;27.47;100491.52;1453391;89;20285;-88
2022/08/04 11:50:40;;;;;;;;;;;;;;;32.06;25.91;100487.98;1451889;90;20323;-88
2022/08/04 11:53:09;;;;;;;;;;;;;;;31.81;25.10;100484.91;1456691;90;20323;-88
2022/08/04 11:55:36;;;;;;;;;;;;;;;31.87;25.85;100486.48;1453606;89;20314;-88
2022/08/04 11:58:02;;;;;;;;;;;;;;;31.85;26.12;100488.69;1448483;89;21034;-87
2022/08/04 12:00:30;;;;;;;;;;;;;;;31.68;24.61;100489.14;1438906;90;20300;-88
2022/08/04 12:02:59;;;;;;;;;;;;;;;31.83;24.91;100482.71;1438641;90;20449;-88
2022/08/04 12:05:34;;;;;;;;;;;;;;;31.90;26.84;100477.70;1452102;90;20407;-87
2022/08/04 12:08:23;;;;;;;;;;;;;;;31.90;25.42;100476.34;1454876;90;21567;-88
2022/08/04 12:11:10;;;;;;;;;;;;;;;31.97;26.44;100471.38;1449599;89;20396;-87
2022/08/04 12:13:55;;;;;;;;;;;;;;;31.89;26.26;100476.08;1453714;89;21024;-87
2022/08/04 12:16:39;;;;;;;;;;;;;;;32.06;27.20;100484.69;1458910;89;20279;-86
2022/08/04 12:19:09;;;;;;;;;;;;;;;32.14;23.79;100475.04;1434864;91;20421;-87
2022/08/04 12:21:38;;;;;;;;;;;;;;;32.22;24.31;100477.11;1444693;90;20411;-88
2022/08/04 12:24:16;;;;;;;;;;;;;;;32.24;24.08;100473.54;1452508;90;20876;-88
2022/08/04 12:26:46;;;;;;;;;;;;;;;32.36;23.70;100475.30;1455710;90;20395;-88
2022/08/04 12:29:14;;;;;;;;;;;;;;;32.60;24.09;100474.52;1454956;90;20315;-88
2022/08/04 12:31:49;;;;;;;;;;;;;;;32.69;23.05;100470.58;1433719;90;20315;-88
2022/08/04 12:34:36;;;;;;;;;;;;;;;32.63;23.83;100471.73;1449159;90;20961;-88
2022/08/04 12:37:06;;;;;;;;;;;;;;;32.52;24.05;100465.03;1450794;89;20338;-87
2022/08/04 12:39:32;;;;;;;;;;;;;;;32.55;22.56;100471.84;1454797;90;20286;-87
2022/08/04 12:42:16;;;;;;;;;;;;;;;32.42;22.79;100466.48;1450088;89;20867;-88
2022/08/04 12:44:44;;;;;;;;;;;;;;;32.48;23.87;100468.07;1441821;89;20346;-87
2022/08/04 12:47:12;;;;;;;;;;;;;;;32.77;25.27;100464.41;1440615;90;20389;-87
2022/08/04 12:49:40;;;;;;;;;;;;;;;32.87;22.76;100464.84;1448851;89;20315;-86
2022/08/04 12:52:07;;;;;;;;;;;;;;;32.87;22.67;100465.66;1444515;90;20330;-87
2022/08/04 12:54:36;;;;;;;;;;;;;;;33.00;23.42;100466.86;1445000;89;20434;-87
2022/08/04 12:57:05;;;;;;;;;;;;;;;33.17;24.86;100460.84;1445453;89;20286;-87
2022/08/04 12:59:45;;;;;;;;;;;;;;;33.65;25.02;100455.97;1445966;89;20829;-87
2022/08/04 13:02:27;;;;;;;;;;;;;;;34.01;24.14;100452.58;1453976;90;20806;-87
2022/08/04 13:04:54;;;;;;;;;;;;;;;34.08;23.87;100447.52;1442109;89;20415;-83
2022/08/04 13:07:23;;;;;;;;;;;;;;;33.99;22.55;100445.20;1454141;89;20330;-83
2022/08/04 13:09:50;;;;;;;;;;;;;;;34.18;22.79;100442.94;1430762;90;20375;-83
2022/08/04 13:12:24;;;;;;;;;;;;;;;34.11;21.81;100441.98;1457931;89;20821;-83
2022/08/04 13:14:52;;;;;;;;;;;;;;;34.22;20.46;100441.22;1453945;90;20271;-83